Time;durP1;ratioP1;P1;durP2;ratioP2;P2;SDS_P1;SDS_P2;PMS_P1;PMS_P2;Temp;Humidity;BMP_temperature;BMP_pressure;BME280_temperature;BME280_humidity;BME280_pressure;Samples;Min_cycle;Max_cycle;Signal;HPM_P1;HPM_P2
2023/03/19 00:02:25;;;;;;;;;;;;;;;9.61;67.76;96164.25;5075471;28;20028;-76
2023/03/19 00:04:51;;;;;;;;;;;;;;;9.60;68.01;96161.88;5075010;28;19941;-76
2023/03/19 00:07:17;;;;;;;;;;;;;;;9.61;69.02;96153.75;5075585;28;19945;-76
2023/03/19 00:09:43;;;;;;;;;;;;;;;9.60;68.89;96157.41;5074735;28;19943;-68
2023/03/19 00:12:09;;;;;;;;;;;;;;;9.60;68.49;96157.41;5074744;28;19946;-69
2023/03/19 00:14:35;;;;;;;;;;;;;;;9.60;68.63;96154.00;5075580;28;20305;-69
2023/03/19 00:17:01;;;;;;;;;;;;;;;9.60;68.86;96160.03;5074902;28;19949;-69
2023/03/19 00:19:27;;;;;;;;;;;;;;;9.61;69.82;96166.84;5075257;28;19945;-69
2023/03/19 00:21:53;;;;;;;;;;;;;;;9.62;68.73;96165.06;5074601;28;19993;-69
2023/03/19 00:24:19;;;;;;;;;;;;;;;9.62;68.34;96162.44;5074375;28;19937;-69
2023/03/19 00:26:45;;;;;;;;;;;;;;;9.62;68.11;96172.91;5074658;28;19973;-69
2023/03/19 00:29:11;;;;;;;;;;;;;;;9.62;68.51;96183.38;5073708;28;19952;-76
2023/03/19 00:31:38;;;;;;;;;;;;;;;9.59;68.13;96184.59;5074405;28;20388;-66
2023/03/19 00:34:04;;;;;;;;;;;;;;;9.59;70.19;96189.03;5074683;28;20457;-66
2023/03/19 00:36:30;;;;;;;;;;;;;;;9.46;69.52;96196.00;5074183;28;20031;-66
2023/03/19 00:38:56;;;;;;;;;;;;;;;9.35;70.00;96201.97;5074199;28;19942;-66
2023/03/19 00:41:22;;;;;;;;;;;;;;;9.31;69.62;96195.56;5074393;28;20374;-66
2023/03/19 00:43:52;;;;;;;;;;;;;;;9.31;70.25;96209.44;5073049;28;19941;-67
2023/03/19 00:46:17;;;;;;;;;;;;;;;9.30;69.83;96207.03;5074010;28;19944;-69
2023/03/19 00:48:43;;;;;;;;;;;;;;;9.31;72.20;96229.59;5074091;28;20040;-69
2023/03/19 00:51:10;;;;;;;;;;;;;;;9.27;71.35;96236.25;5074317;28;19939;-69
2023/03/19 00:53:41;;;;;;;;;;;;;;;9.24;71.63;96245.34;5073827;28;19957;-69
2023/03/19 00:56:07;;;;;;;;;;;;;;;9.19;71.18;96241.75;5074018;28;19945;-69
2023/03/19 00:58:34;;;;;;;;;;;;;;;9.05;70.63;96241.88;5073747;28;19944;-68
2023/03/19 01:01:00;;;;;;;;;;;;;;;8.96;75.39;96247.56;5073167;28;20400;-69
2023/03/19 01:03:27;;;;;;;;;;;;;;;8.91;74.98;96243.78;5073917;28;19940;-69
2023/03/19 01:05:52;;;;;;;;;;;;;;;8.90;75.83;96257.03;5073822;28;19947;-70
2023/03/19 01:08:19;;;;;;;;;;;;;;;8.88;73.88;96265.13;5073682;28;20033;-68
2023/03/19 01:10:45;;;;;;;;;;;;;;;8.80;79.73;96281.06;5073793;28;19940;-68
2023/03/19 01:13:11;;;;;;;;;;;;;;;8.71;76.13;96266.63;5073777;28;20325;-69
2023/03/19 01:15:38;;;;;;;;;;;;;;;8.69;78.11;96284.31;5074474;28;20422;-70
2023/03/19 01:18:04;;;;;;;;;;;;;;;8.70;76.12;96271.06;5072597;28;19951;-70
2023/03/19 01:20:30;;;;;;;;;;;;;;;8.75;77.97;96270.41;5074331;28;19939;-71
2023/03/19 01:22:56;;;;;;;;;;;;;;;8.81;78.98;96274.00;5073716;28;19943;-70
2023/03/19 01:25:22;;;;;;;;;;;;;;;8.86;79.76;96263.72;5073845;28;19942;-72
2023/03/19 01:27:49;;;;;;;;;;;;;;;8.89;81.85;96274.56;5071919;28;19994;-69
2023/03/19 01:30:15;;;;;;;;;;;;;;;8.93;82.42;96265.28;5073886;28;19942;-69
2023/03/19 01:32:41;;;;;;;;;;;;;;;8.93;82.88;96259.25;5073422;28;19945;-69
2023/03/19 01:35:08;;;;;;;;;;;;;;;8.92;85.33;96250.63;5073681;28;19965;-69
2023/03/19 01:37:34;;;;;;;;;;;;;;;8.88;90.61;96236.34;5073704;28;20442;-69
2023/03/19 01:40:00;;;;;;;;;;;;;;;8.82;88.97;96212.84;5073657;28;19934;-69
2023/03/19 01:42:26;;;;;;;;;;;;;;;8.79;90.21;96227.16;5073679;28;19989;-76
2023/03/19 01:44:52;;;;;;;;;;;;;;;8.82;94.71;96239.00;5073379;28;19939;-75
2023/03/19 01:47:33;;;;;;;;;;;;;;;8.83;93.95;96228.34;5073440;28;19946;-75
2023/03/19 01:49:59;;;;;;;;;;;;;;;8.84;92.72;96226.50;5073949;28;19942;-74
2023/03/19 01:52:27;;;;;;;;;;;;;;;8.87;90.94;96216.44;5073304;28;19939;-75
2023/03/19 01:54:55;;;;;;;;;;;;;;;8.92;91.16;96221.03;5072319;28;20461;-74
2023/03/19 01:57:21;;;;;;;;;;;;;;;8.97;90.39;96217.78;5073088;28;20417;-75
2023/03/19 01:59:50;;;;;;;;;;;;;;;9.00;90.99;96230.44;5073157;28;20312;-72
2023/03/19 02:02:16;;;;;;;;;;;;;;;9.05;90.70;96238.44;5072932;28;19947;-70
2023/03/19 02:04:43;;;;;;;;;;;;;;;9.08;93.26;96241.44;5071966;28;20317;-72
2023/03/19 02:07:10;;;;;;;;;;;;;;;9.12;92.46;96240.00;5072911;28;19968;-71
2023/03/19 02:09:36;;;;;;;;;;;;;;;9.14;92.80;96242.41;5071850;28;19946;-71
2023/03/19 02:12:01;;;;;;;;;;;;;;;9.16;89.93;96226.50;5072972;28;19981;-72
2023/03/19 02:14:27;;;;;;;;;;;;;;;9.17;91.53;96238.56;5072840;28;19966;-71
2023/03/19 02:16:54;;;;;;;;;;;;;;;9.17;92.38;96238.56;5072381;28;20408;-72
2023/03/19 02:19:27;;;;;;;;;;;;;;;9.18;90.18;96234.94;5073229;28;19947;-69
2023/03/19 02:21:54;;;;;;;;;;;;;;;9.16;90.75;96235.13;5073153;28;19953;-76
2023/03/19 02:24:32;;;;;;;;;;;;;;;9.17;90.32;96241.16;5071692;28;20406;-76
2023/03/19 02:26:58;;;;;;;;;;;;;;;9.16;90.09;96235.13;5071906;28;20287;-76
2023/03/19 02:29:24;;;;;;;;;;;;;;;9.14;90.30;96235.34;5072314;28;19967;-76
2023/03/19 02:31:50;;;;;;;;;;;;;;;9.14;89.98;96245.81;5072996;28;19941;-77
2023/03/19 02:34:20;;;;;;;;;;;;;;;9.14;89.94;96248.44;5073205;28;20459;-76
2023/03/19 02:37:06;;;;;;;;;;;;;;;9.12;91.00;96253.06;5072735;28;19968;-69
2023/03/19 02:39:35;;;;;;;;;;;;;;;9.09;91.21;96248.28;5072564;28;20403;-70
2023/03/19 02:42:01;;;;;;;;;;;;;;;9.08;91.58;96248.47;5072618;28;20319;-70
2023/03/19 02:44:27;;;;;;;;;;;;;;;9.07;92.36;96255.53;5072852;28;20398;-70
2023/03/19 02:46:53;;;;;;;;;;;;;;;9.05;91.94;96247.09;5073109;28;19986;-70
2023/03/19 02:49:19;;;;;;;;;;;;;;;9.05;91.01;96244.47;5073155;28;19952;-70
2023/03/19 02:51:45;;;;;;;;;;;;;;;9.05;92.51;96249.72;5074594;28;19948;-70
2023/03/19 02:54:10;;;;;;;;;;;;;;;9.04;92.25;96245.47;5076031;28;19942;-67
2023/03/19 02:56:36;;;;;;;;;;;;;;;9.03;94.77;96243.06;5076300;28;20350;-68
2023/03/19 02:59:03;;;;;;;;;;;;;;;9.04;93.39;96248.09;5076675;28;19942;-69
2023/03/19 03:01:29;;;;;;;;;;;;;;;9.04;97.17;96257.75;5076298;28;20396;-68
2023/03/19 03:03:55;;;;;;;;;;;;;;;8.91;96.28;96253.44;5074662;28;19944;-68
2023/03/19 03:06:21;;;;;;;;;;;;;;;8.76;94.14;96243.28;5076273;28;19954;-68
2023/03/19 03:08:46;;;;;;;;;;;;;;;8.69;93.98;96248.56;5075979;28;19942;-68
2023/03/19 03:11:12;;;;;;;;;;;;;;;8.66;91.81;96233.28;5075823;28;19940;-67
2023/03/19 03:13:38;;;;;;;;;;;;;;;8.65;91.78;96236.91;5076719;28;20005;-76
2023/03/19 03:16:04;;;;;;;;;;;;;;;8.63;90.94;96240.72;5075783;28;20321;-69
2023/03/19 03:18:31;;;;;;;;;;;;;;;8.63;91.56;96245.94;5074643;28;19942;-68
2023/03/19 03:20:57;;;;;;;;;;;;;;;8.63;91.40;96240.72;5076417;28;19941;-69
2023/03/19 03:23:23;;;;;;;;;;;;;;;8.66;90.99;96245.53;5075614;28;20042;-69
2023/03/19 03:25:50;;;;;;;;;;;;;;;8.66;91.11;96248.16;5075783;28;19984;-69
2023/03/19 03:28:16;;;;;;;;;;;;;;;8.66;91.16;96248.94;5075541;28;19971;-68
2023/03/19 03:30:42;;;;;;;;;;;;;;;8.64;90.14;96247.56;5075578;28;19948;-69
2023/03/19 03:33:08;;;;;;;;;;;;;;;8.61;90.58;96251.41;5075349;28;19953;-75
2023/03/19 03:35:34;;;;;;;;;;;;;;;8.59;90.57;96242.97;5075317;28;19968;-68
2023/03/19 03:38:00;;;;;;;;;;;;;;;8.58;90.66;96243.19;5074059;28;19988;-67
2023/03/19 03:40:26;;;;;;;;;;;;;;;8.59;91.07;96245.59;5075262;28;19936;-68
2023/03/19 03:42:52;;;;;;;;;;;;;;;8.59;91.36;96252.59;5075635;28;19948;-68
2023/03/19 03:45:17;;;;;;;;;;;;;;;8.59;90.50;96236.91;5075134;28;19947;-67
2023/03/19 03:47:43;;;;;;;;;;;;;;;8.59;90.43;96242.16;5075245;28;19942;-68
2023/03/19 03:50:09;;;;;;;;;;;;;;;8.60;91.56;96246.38;5075164;28;19941;-67
2023/03/19 03:52:36;;;;;;;;;;;;;;;8.62;91.30;96252.19;5074864;28;19952;-73
2023/03/19 03:55:02;;;;;;;;;;;;;;;8.59;91.17;96245.59;5074200;28;20302;-68
2023/03/19 03:57:31;;;;;;;;;;;;;;;8.61;91.72;96259.25;5075123;28;19944;-68
2023/03/19 03:59:57;;;;;;;;;;;;;;;8.60;92.30;96257.63;5075669;28;20010;-68
2023/03/19 04:02:23;;;;;;;;;;;;;;;8.60;92.57;96257.63;5074992;28;19940;-68
2023/03/19 04:04:50;;;;;;;;;;;;;;;8.60;92.63;96268.09;5075832;28;19939;-69
2023/03/19 04:07:16;;;;;;;;;;;;;;;8.61;92.75;96282.78;5075180;28;20395;-69
2023/03/19 04:09:42;;;;;;;;;;;;;;;8.60;93.90;96285.59;5075641;28;20376;-68
2023/03/19 04:12:08;;;;;;;;;;;;;;;8.57;93.11;96286.81;5075521;28;19947;-67
2023/03/19 04:14:34;;;;;;;;;;;;;;;8.52;92.16;96287.44;5074630;28;20010;-67
2023/03/19 04:17:00;;;;;;;;;;;;;;;8.49;92.10;96281.81;5074479;28;19953;-68
2023/03/19 04:19:26;;;;;;;;;;;;;;;8.47;92.56;96282.03;5074981;28;19946;-67
2023/03/19 04:21:52;;;;;;;;;;;;;;;8.45;91.99;96281.44;5075100;28;19942;-68
2023/03/19 04:24:18;;;;;;;;;;;;;;;8.44;91.88;96286.84;5074559;28;19949;-67
2023/03/19 04:26:45;;;;;;;;;;;;;;;8.43;91.87;96280.84;5074909;28;20374;-74
2023/03/19 04:29:11;;;;;;;;;;;;;;;8.43;93.14;96293.09;5075225;28;19946;-71
2023/03/19 04:31:38;;;;;;;;;;;;;;;8.44;92.57;96287.69;5074771;28;19943;-70
2023/03/19 04:34:04;;;;;;;;;;;;;;;8.44;92.48;96292.91;5074096;28;19962;-70
2023/03/19 04:36:30;;;;;;;;;;;;;;;8.44;93.03;96285.06;5074089;28;19958;-71
2023/03/19 04:38:56;;;;;;;;;;;;;;;8.46;92.43;96292.69;5074158;28;19946;-71
2023/03/19 04:41:22;;;;;;;;;;;;;;;8.46;91.92;96295.28;5074287;28;19993;-70
2023/03/19 04:43:47;;;;;;;;;;;;;;;8.46;91.48;96285.66;5073997;28;19951;-71
2023/03/19 04:46:13;;;;;;;;;;;;;;;8.44;90.79;96282.47;5074034;28;20309;-67
2023/03/19 04:48:39;;;;;;;;;;;;;;;8.44;92.04;96302.53;5074076;28;19949;-67
2023/03/19 04:51:08;;;;;;;;;;;;;;;8.43;92.93;96304.34;5072723;28;19940;-67
2023/03/19 04:53:34;;;;;;;;;;;;;;;8.45;92.78;96302.34;5073786;28;19947;-68
2023/03/19 04:56:01;;;;;;;;;;;;;;;8.44;92.44;96298.13;5074625;28;19948;-67
2023/03/19 04:58:27;;;;;;;;;;;;;;;8.44;92.91;96308.59;5073899;28;19951;-68
2023/03/19 05:00:53;;;;;;;;;;;;;;;8.44;93.71;96310.38;5072455;28;20033;-68
2023/03/19 05:03:19;;;;;;;;;;;;;;;8.43;91.83;96306.97;5073562;28;20397;-69
2023/03/19 05:05:45;;;;;;;;;;;;;;;8.43;92.29;96311.41;5073742;28;19949;-70
2023/03/19 05:08:12;;;;;;;;;;;;;;;8.42;91.71;96305.38;5073917;28;20011;-67
2023/03/19 05:10:38;;;;;;;;;;;;;;;8.42;92.27;96309.78;5074035;28;19945;-67
2023/03/19 05:13:05;;;;;;;;;;;;;;;8.41;92.95;96302.97;5074228;28;19946;-67
2023/03/19 05:15:31;;;;;;;;;;;;;;;8.40;93.55;96309.97;5073851;28;19961;-68
2023/03/19 05:17:57;;;;;;;;;;;;;;;8.41;93.81;96316.03;5073628;28;19946;-68
2023/03/19 05:20:24;;;;;;;;;;;;;;;8.38;94.36;96313.78;5074424;28;19944;-68
2023/03/19 05:22:51;;;;;;;;;;;;;;;8.37;93.71;96312.19;5073604;28;19944;-78
2023/03/19 05:25:17;;;;;;;;;;;;;;;8.34;94.89;96310.81;5074233;28;19967;-73
2023/03/19 05:27:44;;;;;;;;;;;;;;;8.36;94.70;96315.81;5073909;28;19970;-73
2023/03/19 05:30:11;;;;;;;;;;;;;;;8.34;94.08;96318.66;5073896;28;20321;-74
2023/03/19 05:32:39;;;;;;;;;;;;;;;8.32;96.05;96329.28;5073371;28;20389;-74
2023/03/19 05:35:05;;;;;;;;;;;;;;;8.32;95.32;96326.69;5073956;28;19963;-72
2023/03/19 05:37:31;;;;;;;;;;;;;;;8.33;94.99;96320.44;5073333;28;19961;-73
2023/03/19 05:39:57;;;;;;;;;;;;;;;8.36;94.70;96321.03;5073292;28;19936;-74
2023/03/19 05:42:22;;;;;;;;;;;;;;;8.36;95.21;96321.84;5073401;28;19941;-71
2023/03/19 05:44:48;;;;;;;;;;;;;;;8.39;95.78;96328.47;5072229;28;20022;-69
2023/03/19 05:47:15;;;;;;;;;;;;;;;8.37;94.80;96325.25;5073418;28;20024;-69
2023/03/19 05:49:40;;;;;;;;;;;;;;;8.38;94.88;96334.69;5073992;28;19956;-69
2023/03/19 05:52:06;;;;;;;;;;;;;;;8.39;95.05;96331.88;5073618;28;20001;-68
2023/03/19 05:54:32;;;;;;;;;;;;;;;8.41;95.78;96336.94;5073233;28;20085;-68
2023/03/19 05:56:58;;;;;;;;;;;;;;;8.41;96.24;96347.38;5073296;28;20330;-69
2023/03/19 05:59:24;;;;;;;;;;;;;;;8.40;95.39;96346.56;5074089;28;19947;-69
2023/03/19 06:01:50;;;;;;;;;;;;;;;8.41;95.22;96344.78;5073316;28;20328;-68
2023/03/19 06:04:16;;;;;;;;;;;;;;;8.43;94.92;96353.22;5073237;28;19964;-68
2023/03/19 06:06:42;;;;;;;;;;;;;;;8.42;95.01;96351.59;5073141;28;19946;-68
2023/03/19 06:09:08;;;;;;;;;;;;;;;8.42;95.59;96355.03;5073637;28;19944;-68
2023/03/19 06:11:34;;;;;;;;;;;;;;;8.43;95.09;96346.16;5073368;28;19966;-69
2023/03/19 06:14:00;;;;;;;;;;;;;;;8.41;96.74;96356.03;5072941;28;19939;-69
2023/03/19 06:16:25;;;;;;;;;;;;;;;8.39;95.41;96352.00;5073000;28;20396;-67
2023/03/19 06:18:51;;;;;;;;;;;;;;;8.40;96.61;96364.03;5073894;28;19951;-68
2023/03/19 06:21:17;;;;;;;;;;;;;;;8.40;95.52;96358.81;5073044;28;19968;-68
2023/03/19 06:23:43;;;;;;;;;;;;;;;8.40;94.76;96351.78;5073780;28;19973;-68
2023/03/19 06:26:09;;;;;;;;;;;;;;;8.40;94.17;96358.81;5073343;28;20005;-68
2023/03/19 06:28:35;;;;;;;;;;;;;;;8.42;94.08;96356.81;5076878;28;19970;-68
2023/03/19 06:31:01;;;;;;;;;;;;;;;8.42;93.63;96352.41;5076649;28;19974;-69
2023/03/19 06:33:30;;;;;;;;;;;;;;;8.43;93.94;96356.63;5077498;28;19947;-68
2023/03/19 06:35:57;;;;;;;;;;;;;;;8.45;94.63;96351.19;5076900;28;19967;-70
2023/03/19 06:38:22;;;;;;;;;;;;;;;8.47;93.60;96352.59;5076557;28;20404;-70
2023/03/19 06:40:48;;;;;;;;;;;;;;;8.47;93.40;96347.38;5076039;28;19935;-69
2023/03/19 06:43:14;;;;;;;;;;;;;;;8.49;93.57;96344.56;5058431;28;19951;-70
2023/03/19 06:45:41;;;;;;;;;;;;;;;8.50;92.29;96340.91;5076592;28;20300;-69
2023/03/19 06:48:06;;;;;;;;;;;;;;;8.50;92.63;96346.97;5076437;28;20280;-69
2023/03/19 06:50:32;;;;;;;;;;;;;;;8.47;92.30;96341.34;5075011;28;19953;-69
2023/03/19 06:52:58;;;;;;;;;;;;;;;8.48;92.64;96343.75;5075108;28;19942;-70
2023/03/19 06:55:24;;;;;;;;;;;;;;;8.50;91.33;96346.13;5076256;28;19960;-69
2023/03/19 06:57:50;;;;;;;;;;;;;;;8.46;91.86;96348.38;5076243;28;19943;-68
2023/03/19 07:00:17;;;;;;;;;;;;;;;8.46;92.20;96352.78;5076118;28;20352;-68
2023/03/19 07:02:43;;;;;;;;;;;;;;;8.48;93.41;96358.63;5058901;28;19952;-68
2023/03/19 07:05:09;;;;;;;;;;;;;;;8.49;92.84;96360.22;5075993;28;20317;-67
2023/03/19 07:07:35;;;;;;;;;;;;;;;8.54;92.71;96355.16;5074773;28;19941;-68
2023/03/19 07:10:01;;;;;;;;;;;;;;;8.57;92.22;96360.00;5076632;28;19942;-68
2023/03/19 07:12:27;;;;;;;;;;;;;;;8.59;91.88;96351.94;5075948;28;19991;-70
2023/03/19 07:14:54;;;;;;;;;;;;;;;8.61;91.55;96348.13;5074866;28;19959;-68
2023/03/19 07:17:21;;;;;;;;;;;;;;;8.63;92.09;96355.75;5076369;28;19942;-75
2023/03/19 07:19:47;;;;;;;;;;;;;;;8.66;92.52;96352.72;5075779;28;20290;-76
2023/03/19 07:22:13;;;;;;;;;;;;;;;8.76;93.77;96378.41;5076424;28;19955;-76
2023/03/19 07:24:39;;;;;;;;;;;;;;;8.80;92.79;96363.91;5075610;28;19945;-76
2023/03/19 07:27:05;;;;;;;;;;;;;;;8.87;93.44;96372.53;5075728;28;20434;-76
2023/03/19 07:29:31;;;;;;;;;;;;;;;8.93;96.54;96380.34;5076250;28;19943;-76
2023/03/19 07:31:56;;;;;;;;;;;;;;;8.98;93.96;96366.66;5074231;28;19967;-69
2023/03/19 07:34:23;;;;;;;;;;;;;;;9.05;93.14;96367.44;5076527;28;20320;-70
2023/03/19 07:36:48;;;;;;;;;;;;;;;9.10;94.07;96374.63;5057585;28;19959;-70
2023/03/19 07:39:14;;;;;;;;;;;;;;;9.15;93.81;96374.78;5075811;28;19983;-70
2023/03/19 07:41:43;;;;;;;;;;;;;;;9.21;92.98;96365.31;5075489;28;20001;-70
2023/03/19 07:44:10;;;;;;;;;;;;;;;9.21;93.41;96373.97;5075241;28;20314;-70
2023/03/19 07:46:36;;;;;;;;;;;;;;;9.20;92.05;96368.94;5075779;28;19944;-70
2023/03/19 07:49:02;;;;;;;;;;;;;;;9.18;92.41;96369.16;5075374;28;20275;-69
2023/03/19 07:51:27;;;;;;;;;;;;;;;9.17;92.68;96378.00;5075309;28;19946;-76
2023/03/19 07:53:53;;;;;;;;;;;;;;;9.22;93.07;96377.38;5075525;28;19942;-70
2023/03/19 07:56:19;;;;;;;;;;;;;;;9.24;92.36;96372.72;5074524;28;19957;-70
2023/03/19 07:58:45;;;;;;;;;;;;;;;9.25;90.70;96361.25;5075309;28;19944;-70
2023/03/19 08:01:11;;;;;;;;;;;;;;;9.29;91.04;96367.69;5075307;28;19948;-71
2023/03/19 08:03:37;;;;;;;;;;;;;;;9.38;90.54;96363.78;5075245;28;19940;-70
2023/03/19 08:06:03;;;;;;;;;;;;;;;9.53;92.53;96366.91;5075395;28;19947;-70
2023/03/19 08:08:30;;;;;;;;;;;;;;;9.75;90.96;96359.47;5075721;28;19939;-70
2023/03/19 08:10:56;;;;;;;;;;;;;;;9.98;89.44;96350.22;5075625;28;19937;-78
2023/03/19 08:13:22;;;;;;;;;;;;;;;10.20;88.37;96353.22;5075008;28;19943;-75
2023/03/19 08:15:48;;;;;;;;;;;;;;;10.33;88.06;96350.50;5074906;28;20455;-76
2023/03/19 08:18:14;;;;;;;;;;;;;;;10.31;85.85;96339.44;5074882;28;20403;-77
2023/03/19 08:20:40;;;;;;;;;;;;;;;10.33;87.31;96347.06;5075461;28;19951;-76
2023/03/19 08:23:06;;;;;;;;;;;;;;;10.31;85.01;96344.69;5074838;28;20130;-77
2023/03/19 08:25:32;;;;;;;;;;;;;;;10.31;85.90;96344.69;5074753;28;20015;-68
2023/03/19 08:27:59;;;;;;;;;;;;;;;10.34;86.65;96352.09;5074604;28;19973;-69
2023/03/19 08:30:25;;;;;;;;;;;;;;;10.35;85.67;96353.72;5075563;28;20369;-68
2023/03/19 08:32:50;;;;;;;;;;;;;;;10.39;85.80;96348.00;5075200;28;19941;-67
2023/03/19 08:35:17;;;;;;;;;;;;;;;10.43;87.91;96362.28;5074461;28;19968;-67
2023/03/19 08:37:43;;;;;;;;;;;;;;;10.50;87.14;96355.16;5075013;28;19961;-68
2023/03/19 08:40:09;;;;;;;;;;;;;;;10.59;86.32;96353.03;5075351;28;19948;-68
2023/03/19 08:42:37;;;;;;;;;;;;;;;10.66;87.33;96362.41;5074998;28;19945;-68
2023/03/19 08:45:03;;;;;;;;;;;;;;;10.83;87.24;96361.81;5074360;28;20315;-77
2023/03/19 08:47:30;;;;;;;;;;;;;;;10.95;86.69;96360.06;5074643;28;20418;-69
2023/03/19 08:49:55;;;;;;;;;;;;;;;11.00;84.27;96341.81;5073580;28;19941;-68
2023/03/19 08:52:22;;;;;;;;;;;;;;;10.93;84.51;96344.53;5074198;28;20412;-69
2023/03/19 08:54:48;;;;;;;;;;;;;;;10.93;84.44;96341.09;5074208;28;20413;-68
2023/03/19 08:57:14;;;;;;;;;;;;;;;10.93;85.76;96362.88;5074162;28;19954;-68
2023/03/19 08:59:40;;;;;;;;;;;;;;;10.93;85.33;96349.78;5075005;28;20315;-69
2023/03/19 09:02:06;;;;;;;;;;;;;;;11.03;85.77;96364.19;5074099;28;20028;-68
2023/03/19 09:04:36;;;;;;;;;;;;;;;11.33;86.68;96358.94;5074962;28;20010;-69
2023/03/19 09:07:02;;;;;;;;;;;;;;;11.86;83.28;96338.91;5074092;28;19944;-68
2023/03/19 09:09:28;;;;;;;;;;;;;;;12.14;82.10;96330.38;5073975;28;19942;-67
2023/03/19 09:11:54;;;;;;;;;;;;;;;12.58;80.25;96314.97;5073885;28;20385;-68
2023/03/19 09:14:21;;;;;;;;;;;;;;;12.88;76.88;96293.66;5074678;28;19987;-68
2023/03/19 09:16:47;;;;;;;;;;;;;;;13.17;76.81;96296.28;5073847;28;19966;-67
2023/03/19 09:19:14;;;;;;;;;;;;;;;13.26;73.87;96278.25;5073945;28;20445;-68
2023/03/19 09:21:40;;;;;;;;;;;;;;;13.31;73.10;96275.72;5074690;28;19943;-68
2023/03/19 09:24:06;;;;;;;;;;;;;;;13.42;74.10;96295.94;5072755;28;19973;-69
2023/03/19 09:26:31;;;;;;;;;;;;;;;13.64;73.76;96300.47;5073954;28;20376;-70
2023/03/19 09:28:58;;;;;;;;;;;;;;;13.70;72.37;96294.25;5073779;28;19972;-68
2023/03/19 09:31:24;;;;;;;;;;;;;;;13.73;72.63;96296.38;5073954;28;19936;-69
2023/03/19 09:33:50;;;;;;;;;;;;;;;13.85;73.00;96298.94;5073700;28;20026;-69
2023/03/19 09:36:16;;;;;;;;;;;;;;;13.85;70.99;96283.91;5073595;28;19968;-69
2023/03/19 09:38:41;;;;;;;;;;;;;;;13.71;71.68;96296.66;5074492;28;19985;-69
2023/03/19 09:41:17;;;;;;;;;;;;;;;13.60;72.74;96294.88;5074290;28;19940;-78
2023/03/19 09:43:49;;;;;;;;;;;;;;;13.62;74.50;96308.63;5073782;28;19945;-80
2023/03/19 09:46:20;;;;;;;;;;;;;;;13.76;75.47;96320.44;5072725;28;19939;-79
2023/03/19 09:49:08;;;;;;;;;;;;;;;13.86;71.87;96290.78;5074190;28;19939;-79
2023/03/19 09:51:49;;;;;;;;;;;;;;;13.91;73.95;96306.66;5072739;28;19945;-79
2023/03/19 09:54:23;;;;;;;;;;;;;;;13.99;72.93;96297.56;5074347;28;20296;-80
2023/03/19 09:56:49;;;;;;;;;;;;;;;14.04;70.87;96287.06;5073484;28;19961;-79
2023/03/19 09:59:15;;;;;;;;;;;;;;;14.10;73.30;96296.66;5073585;28;20441;-70
2023/03/19 10:01:46;;;;;;;;;;;;;;;14.17;71.09;96284.09;5076175;28;19999;-68
2023/03/19 10:04:14;;;;;;;;;;;;;;;14.24;71.65;96291.00;5078346;28;19940;-69
2023/03/19 10:06:40;;;;;;;;;;;;;;;14.29;63.55;96257.59;5077471;28;19947;-69
2023/03/19 10:09:21;;;;;;;;;;;;;;;14.36;62.02;96270.59;5076574;28;19945;-69
2023/03/19 10:12:00;;;;;;;;;;;;;;;14.28;63.45;96292.09;5077403;28;19946;-70
2023/03/19 10:14:46;;;;;;;;;;;;;;;14.37;64.13;96290.66;5078210;28;19944;-71
2023/03/19 10:17:18;;;;;;;;;;;;;;;14.47;61.29;96280.22;5076748;28;20337;-70
2023/03/19 10:19:48;;;;;;;;;;;;;;;14.51;60.53;96283.16;5077369;28;20311;-77
2023/03/19 10:22:20;;;;;;;;;;;;;;;14.57;57.88;96276.91;5077139;28;19949;-81
2023/03/19 10:24:47;;;;;;;;;;;;;;;14.74;61.74;96282.94;5077149;28;20311;-80
2023/03/19 10:27:14;;;;;;;;;;;;;;;14.73;55.12;96289.25;5077222;28;19973;-81
2023/03/19 10:29:41;;;;;;;;;;;;;;;14.69;59.45;96311.91;5077069;28;19958;-82
2023/03/19 10:32:08;;;;;;;;;;;;;;;14.66;56.14;96307.13;5076987;28;19935;-84
2023/03/19 10:34:35;;;;;;;;;;;;;;;14.66;55.29;96306.31;5076965;28;20292;-69
2023/03/19 10:37:03;;;;;;;;;;;;;;;14.63;55.77;96307.59;5076954;28;19990;-70
2023/03/19 10:39:31;;;;;;;;;;;;;;;14.76;55.34;96303.78;5076833;28;19939;-70
2023/03/19 10:42:06;;;;;;;;;;;;;;;14.84;59.16;96308.63;5076734;28;19953;-68
2023/03/19 10:44:47;;;;;;;;;;;;;;;15.00;56.11;96306.94;5075835;28;19937;-69
2023/03/19 10:47:14;;;;;;;;;;;;;;;15.07;54.09;96298.81;5077018;28;19937;-68
2023/03/19 10:49:40;;;;;;;;;;;;;;;15.02;53.41;96296.94;5076616;28;19945;-71
2023/03/19 10:52:26;;;;;;;;;;;;;;;14.98;56.92;96304.56;5077149;28;19944;-70
2023/03/19 10:55:00;;;;;;;;;;;;;;;14.88;54.65;96301.00;5076441;28;19942;-68
2023/03/19 10:57:27;;;;;;;;;;;;;;;14.79;56.71;96309.38;5077136;28;19944;-69
2023/03/19 10:59:54;;;;;;;;;;;;;;;14.84;56.04;96303.34;5076529;28;19938;-69
2023/03/19 11:02:22;;;;;;;;;;;;;;;14.92;56.95;96304.75;5076129;28;19947;-68
2023/03/19 11:04:48;;;;;;;;;;;;;;;14.98;55.88;96307.19;5077527;28;19947;-68
2023/03/19 11:07:21;;;;;;;;;;;;;;;14.99;56.73;96313.25;5076274;28;19951;-69
2023/03/19 11:09:48;;;;;;;;;;;;;;;15.08;54.93;96305.72;5076809;28;19943;-68
2023/03/19 11:12:13;;;;;;;;;;;;;;;15.17;57.27;96314.78;5076255;28;19943;-70
2023/03/19 11:14:43;;;;;;;;;;;;;;;15.45;56.45;96304.97;5076257;28;19964;-83
2023/03/19 11:17:15;;;;;;;;;;;;;;;15.84;54.04;96305.56;5076005;28;19952;-83
2023/03/19 11:19:41;;;;;;;;;;;;;;;16.02;55.22;96301.69;5076737;28;19945;-83
2023/03/19 11:22:21;;;;;;;;;;;;;;;16.24;52.70;96291.75;5076080;28;19955;-83
2023/03/19 11:24:52;;;;;;;;;;;;;;;16.25;52.92;96289.91;5075954;28;19972;-85
2023/03/19 11:27:25;;;;;;;;;;;;;;;16.18;53.98;96289.34;5075811;28;20333;-84
2023/03/19 11:29:50;;;;;;;;;;;;;;;16.07;55.54;96283.22;5076522;28;19945;-69
2023/03/19 11:32:30;;;;;;;;;;;;;;;16.00;53.85;96296.66;5075835;28;19995;-82
2023/03/19 11:35:00;;;;;;;;;;;;;;;15.91;53.02;96284.97;5076164;28;19950;-70
2023/03/19 11:37:27;;;;;;;;;;;;;;;15.79;54.33;96287.00;5076469;28;19984;-69
2023/03/19 11:40:07;;;;;;;;;;;;;;;15.71;54.04;96284.81;5075727;28;19949;-70
2023/03/19 11:42:33;;;;;;;;;;;;;;;15.76;55.08;96282.22;5076516;28;20289;-70
2023/03/19 11:45:02;;;;;;;;;;;;;;;15.91;57.08;96295.53;5075852;28;19941;-70
2023/03/19 11:47:38;;;;;;;;;;;;;;;16.02;54.25;96284.00;5076387;28;19949;-70
2023/03/19 11:50:22;;;;;;;;;;;;;;;16.10;52.77;96279.25;5076053;28;19956;-68
2023/03/19 11:53:06;;;;;;;;;;;;;;;16.09;52.74;96267.09;5076206;28;19949;-68
2023/03/19 11:55:35;;;;;;;;;;;;;;;15.95;51.81;96275.47;5074711;28;19969;-68
2023/03/19 11:58:21;;;;;;;;;;;;;;;15.91;52.37;96271.75;5075834;28;19964;-70
2023/03/19 12:00:51;;;;;;;;;;;;;;;16.02;52.22;96276.06;5074856;28;19953;-68
2023/03/19 12:03:36;;;;;;;;;;;;;;;16.15;52.39;96266.06;5075009;28;19951;-70
2023/03/19 12:06:23;;;;;;;;;;;;;;;16.24;51.06;96262.66;5075720;28;19944;-69
2023/03/19 12:08:56;;;;;;;;;;;;;;;16.07;51.50;96266.56;5075746;28;19967;-69
2023/03/19 12:11:26;;;;;;;;;;;;;;;15.94;53.47;96273.09;5075938;28;19951;-69
2023/03/19 12:14:05;;;;;;;;;;;;;;;15.88;52.59;96269.63;5075903;28;19944;-68
2023/03/19 12:16:43;;;;;;;;;;;;;;;15.87;52.82;96267.22;5075738;28;19955;-69
2023/03/19 12:19:27;;;;;;;;;;;;;;;15.79;52.91;96261.38;5075522;28;19938;-70
2023/03/19 12:22:12;;;;;;;;;;;;;;;15.75;52.51;96262.16;5074809;28;19948;-69
2023/03/19 12:24:44;;;;;;;;;;;;;;;15.68;52.42;96266.81;5074649;28;19949;-68
2023/03/19 12:27:29;;;;;;;;;;;;;;;15.61;51.42;96261.75;5074610;28;19969;-69
2023/03/19 12:29:59;;;;;;;;;;;;;;;15.57;54.19;96279.16;5075318;28;20297;-69
2023/03/19 12:32:26;;;;;;;;;;;;;;;15.50;53.06;96271.47;5075467;28;19950;-69
2023/03/19 12:34:54;;;;;;;;;;;;;;;15.40;53.81;96282.72;5075482;28;19949;-69
2023/03/19 12:37:27;;;;;;;;;;;;;;;15.38;53.26;96273.47;5074620;28;19963;-69
2023/03/19 12:40:13;;;;;;;;;;;;;;;15.43;54.27;96273.50;5075317;28;19941;-70
2023/03/19 12:42:39;;;;;;;;;;;;;;;15.52;53.40;96276.50;5074667;28;19937;-69
2023/03/19 12:45:18;;;;;;;;;;;;;;;15.60;53.00;96274.19;5075192;28;20398;-69
2023/03/19 12:47:45;;;;;;;;;;;;;;;15.72;52.45;96263.44;5075326;28;20378;-69
2023/03/19 12:50:14;;;;;;;;;;;;;;;15.77;51.09;96260.84;5073222;28;19944;-68
2023/03/19 12:52:41;;;;;;;;;;;;;;;15.85;52.50;96266.69;5075090;28;19945;-69
2023/03/19 12:55:21;;;;;;;;;;;;;;;15.94;51.39;96260.66;5074522;28;19941;-69
2023/03/19 12:57:46;;;;;;;;;;;;;;;16.10;51.21;96260.72;5074798;28;19945;-69